AFR377 KDTW-LFPG
Flight info
| Callsign | AFR377 |
|---|---|
| Flight time | N/A |
| Altitude | 39000 |
| Route | ZETTR4 DUTEL DCT YXI DCT BAREE DCT RIKAL/M084F390 DCT 5350N DCT 5440N DCT 5430N DCT 5320N DCT LIMRI/N0490F390 DCT XETBO/M084F410 DCT RATKA/N0483F410 DCT LARLA/N0480F400 DCT GANTO/N0482F410 DCT JSY/N0474F320 UY111 INGOR/N0457F280 UM25 LUKIP |
| Aircraft | A359/H-SABDE2E3GHIJ1J2J3J4J5M1P2RWXYZ/LB1D1 |
Departure
| Time | 2026-05-01 12:44 |
|---|---|
| Airport | Detroit Metropolitan Wayne County Airport (KDTW) |
Arrival
| Time | N/A |
|---|---|
| Airport | Charles de Gaulle International Airport (LFPG) |
| Time | Latitude | Longitude | Altitude | Speed | Heading |
|---|---|---|---|---|---|
| 2026-05-01 12:15 | 42.21044 | -83.35727 | 655 ft | 0 kts | 119° |
| 2026-05-01 12:29 | 42.21051 | -83.35744 | 661 ft | 4 kts | 113° |
| 2026-05-01 12:30 | 42.21055 | -83.35824 | 659 ft | 4 kts | 58° |
| 2026-05-01 12:30 | 42.21045 | -83.35840 | 661 ft | 2 kts | 30° |
| 2026-05-01 12:30 | 42.21044 | -83.35842 | 661 ft | 0 kts | 28° |
| 2026-05-01 12:31 | 42.21044 | -83.35843 | 661 ft | 0 kts | 28° |
| 2026-05-01 12:32 | 42.21045 | -83.35843 | 661 ft | 0 kts | 28° |
| 2026-05-01 12:34 | 42.21050 | -83.35839 | 661 ft | 2 kts | 28° |
| 2026-05-01 12:35 | 42.21079 | -83.35817 | 661 ft | 7 kts | 30° |
| 2026-05-01 12:35 | 42.21138 | -83.35771 | 661 ft | 12 kts | 30° |
| 2026-05-01 12:35 | 42.21220 | -83.35711 | 658 ft | 16 kts | 28° |
| 2026-05-01 12:35 | 42.21326 | -83.35634 | 657 ft | 18 kts | 28° |
| 2026-05-01 12:36 | 42.21433 | -83.35554 | 661 ft | 9 kts | 29° |
| 2026-05-01 12:36 | 42.21494 | -83.35516 | 658 ft | 10 kts | 20° |
| 2026-05-01 12:36 | 42.21569 | -83.35494 | 658 ft | 12 kts | 8° |
| 2026-05-01 12:36 | 42.21641 | -83.35485 | 658 ft | 11 kts | 3° |
| 2026-05-01 12:37 | 42.21699 | -83.35472 | 656 ft | 5 kts | 30° |
| 2026-05-01 12:37 | 42.21712 | -83.35432 | 659 ft | 6 kts | 80° |
| 2026-05-01 12:37 | 42.21714 | -83.35342 | 657 ft | 13 kts | 89° |
| 2026-05-01 12:37 | 42.21717 | -83.35198 | 655 ft | 18 kts | 89° |
| 2026-05-01 12:38 | 42.21719 | -83.35024 | 657 ft | 20 kts | 89° |
| 2026-05-01 12:38 | 42.21722 | -83.34856 | 658 ft | 18 kts | 89° |
| 2026-05-01 12:38 | 42.21724 | -83.34691 | 658 ft | 7 kts | 89° |
| 2026-05-01 12:38 | 42.21733 | -83.34621 | 658 ft | 9 kts | 68° |
| 2026-05-01 12:39 | 42.21786 | -83.34556 | 658 ft | 13 kts | 33° |
| 2026-05-01 12:39 | 42.21880 | -83.34487 | 662 ft | 17 kts | 29° |
| 2026-05-01 12:39 | 42.21994 | -83.34401 | 657 ft | 20 kts | 29° |
| 2026-05-01 12:39 | 42.22120 | -83.34307 | 661 ft | 22 kts | 28° |
| 2026-05-01 12:40 | 42.22258 | -83.34206 | 660 ft | 23 kts | 28° |
| 2026-05-01 12:40 | 42.22404 | -83.34098 | 659 ft | 25 kts | 29° |
| 2026-05-01 12:40 | 42.22557 | -83.33985 | 659 ft | 22 kts | 28° |
| 2026-05-01 12:40 | 42.22635 | -83.33927 | 660 ft | 13 kts | 28° |
| 2026-05-01 12:41 | 42.22714 | -83.33868 | 660 ft | 11 kts | 29° |
| 2026-05-01 12:41 | 42.22772 | -83.33824 | 661 ft | 11 kts | 28° |
| 2026-05-01 12:41 | 42.22828 | -83.33782 | 659 ft | 5 kts | 29° |
| 2026-05-01 12:41 | 42.22853 | -83.33760 | 660 ft | 1 kts | 43° |
| 2026-05-01 12:42 | 42.22857 | -83.33744 | 660 ft | 4 kts | 69° |
| 2026-05-01 12:42 | 42.22852 | -83.33709 | 658 ft | 4 kts | 116° |
| 2026-05-01 12:42 | 42.22832 | -83.33661 | 658 ft | 5 kts | 119° |
| 2026-05-01 12:42 | 42.22810 | -83.33629 | 661 ft | 4 kts | 151° |
| 2026-05-01 12:43 | 42.22802 | -83.33633 | 660 ft | 1 kts | 199° |
| 2026-05-01 12:43 | 42.22800 | -83.33635 | 660 ft | 0 kts | 207° |
| 2026-05-01 12:43 | 42.22775 | -83.33654 | 662 ft | 23 kts | 208° |
| 2026-05-01 12:44 | 42.22386 | -83.33943 | 657 ft | 105 kts | 208° |
| 2026-05-01 12:44 | 42.21513 | -83.34583 | 685 ft | 174 kts | 211° |
| 2026-05-01 12:44 | 42.19238 | -83.36239 | 2521 ft | 196 kts | 208° |
| 2026-05-01 12:45 | 42.16309 | -83.36414 | 3270 ft | 234 kts | 161° |
| 2026-05-01 12:45 | 42.14716 | -83.35822 | 3894 ft | 241 kts | 166° |
| 2026-05-01 12:45 | 42.13077 | -83.35354 | 4526 ft | 246 kts | 165° |
| 2026-05-01 12:46 | 42.11466 | -83.34551 | 5168 ft | 248 kts | 147° |
| 2026-05-01 12:46 | 42.10218 | -83.32970 | 5893 ft | 247 kts | 122° |
| 2026-05-01 12:46 | 42.09628 | -83.30776 | 6367 ft | 258 kts | 93° |
| 2026-05-01 12:46 | 42.09650 | -83.28300 | 6847 ft | 270 kts | 85° |
| 2026-05-01 12:47 | 42.09784 | -83.25745 | 7483 ft | 277 kts | 85° |
| 2026-05-01 12:47 | 42.10047 | -83.23138 | 8141 ft | 284 kts | 77° |
| 2026-05-01 12:47 | 42.10486 | -83.20551 | 8808 ft | 290 kts | 75° |
| 2026-05-01 12:47 | 42.10969 | -83.17878 | 9496 ft | 297 kts | 75° |
| 2026-05-01 12:48 | 42.11702 | -83.15250 | 10137 ft | 303 kts | 58° |
| 2026-05-01 12:48 | 42.13160 | -83.13143 | 10459 ft | 316 kts | 31° |
| 2026-05-01 12:48 | 42.15107 | -83.11603 | 10732 ft | 334 kts | 25° |
| 2026-05-01 12:48 | 42.17178 | -83.10093 | 11132 ft | 347 kts | 26° |
| 2026-05-01 12:49 | 42.19293 | -83.08528 | 11958 ft | 347 kts | 26° |
| 2026-05-01 12:49 | 42.21416 | -83.06941 | 12707 ft | 351 kts | 26° |
| 2026-05-01 12:49 | 42.23576 | -83.05315 | 13336 ft | 357 kts | 26° |
| 2026-05-01 12:49 | 42.25775 | -83.03656 | 13966 ft | 363 kts | 26° |
| 2026-05-01 12:50 | 42.28055 | -83.02178 | 14553 ft | 365 kts | 15° |
| 2026-05-01 12:50 | 42.30484 | -83.01267 | 15195 ft | 364 kts | 7° |
| 2026-05-01 12:50 | 42.32958 | -83.00549 | 15840 ft | 368 kts | 6° |
| 2026-05-01 12:50 | 42.35480 | -82.99837 | 16462 ft | 372 kts | 6° |
| 2026-05-01 12:51 | 42.38038 | -82.99110 | 17086 ft | 376 kts | 6° |
| 2026-05-01 12:51 | 42.40620 | -82.98371 | 17714 ft | 380 kts | 6° |
| 2026-05-01 12:51 | 42.45776 | -82.96630 | 18925 ft | 391 kts | 14° |
| 2026-05-01 12:52 | 42.48346 | -82.95325 | 19433 ft | 398 kts | 15° |
| 2026-05-01 12:52 | 42.53669 | -82.92462 | 19936 ft | 423 kts | 17° |
| 2026-05-01 12:52 | 42.56418 | -82.90952 | 20380 ft | 429 kts | 17° |
| 2026-05-01 12:53 | 42.61982 | -82.87871 | 21603 ft | 435 kts | 17° |
| 2026-05-01 12:53 | 42.64763 | -82.86327 | 22220 ft | 437 kts | 17° |
| 2026-05-01 12:53 | 42.67586 | -82.84759 | 22816 ft | 440 kts | 17° |
| 2026-05-01 12:54 | 42.70428 | -82.83178 | 23424 ft | 442 kts | 17° |
| 2026-05-01 12:54 | 42.76167 | -82.79982 | 24368 ft | 449 kts | 17° |
| 2026-05-01 12:54 | 42.79072 | -82.78362 | 24801 ft | 452 kts | 17° |
| 2026-05-01 12:55 | 42.84930 | -82.75089 | 25728 ft | 458 kts | 17° |
| 2026-05-01 12:55 | 42.87890 | -82.73434 | 26154 ft | 462 kts | 17° |
| 2026-05-01 12:55 | 42.90881 | -82.71758 | 26603 ft | 465 kts | 17° |
| 2026-05-01 12:56 | 42.93879 | -82.70050 | 27033 ft | 470 kts | 19° |
| 2026-05-01 12:56 | 42.96785 | -82.68060 | 27470 ft | 476 kts | 22° |
| 2026-05-01 12:56 | 42.99728 | -82.65929 | 27897 ft | 479 kts | 23° |
| 2026-05-01 12:56 | 43.02684 | -82.63806 | 28352 ft | 481 kts | 22° |
| 2026-05-01 12:57 | 43.05673 | -82.61681 | 28761 ft | 484 kts | 22° |
| 2026-05-01 12:57 | 43.11680 | -82.57446 | 29506 ft | 491 kts | 22° |
| 2026-05-01 12:57 | 43.14738 | -82.55296 | 29892 ft | 495 kts | 22° |
| 2026-05-01 12:58 | 43.17813 | -82.53134 | 30220 ft | 498 kts | 22° |
| 2026-05-01 12:58 | 43.20898 | -82.50965 | 30567 ft | 500 kts | 22° |
| 2026-05-01 12:58 | 43.23999 | -82.48780 | 30889 ft | 502 kts | 22° |
| 2026-05-01 12:59 | 43.30253 | -82.44372 | 31448 ft | 507 kts | 22° |
| 2026-05-01 12:59 | 43.33400 | -82.42149 | 31679 ft | 510 kts | 22° |
| 2026-05-01 12:59 | 43.39707 | -82.37689 | 32202 ft | 515 kts | 22° |
| 2026-05-01 13:00 | 43.46108 | -82.33150 | 32725 ft | 518 kts | 22° |
| 2026-05-01 13:00 | 43.49318 | -82.30868 | 33089 ft | 517 kts | 22° |
| 2026-05-01 13:01 | 43.55680 | -82.26340 | 33729 ft | 517 kts | 22° |
| 2026-05-01 13:01 | 43.58876 | -82.24061 | 34093 ft | 516 kts | 22° |
| 2026-05-01 13:01 | 43.65269 | -82.19495 | 34600 ft | 516 kts | 22° |
| 2026-05-01 13:02 | 43.68461 | -82.17212 | 34824 ft | 516 kts | 22° |
| 2026-05-01 13:07 | 44.19958 | -81.41741 | 37023 ft | 534 kts | 58° |
| 2026-05-01 13:07 | 44.21806 | -81.37239 | 37023 ft | 534 kts | 58° |
| 2026-05-01 13:08 | 44.25493 | -81.28237 | 37012 ft | 534 kts | 58° |
| 2026-05-01 13:08 | 44.29172 | -81.19218 | 37022 ft | 534 kts | 58° |
| 2026-05-01 13:09 | 44.32836 | -81.10207 | 37015 ft | 535 kts | 58° |
| 2026-05-01 13:09 | 44.36504 | -81.01155 | 37012 ft | 535 kts | 58° |
| 2026-05-01 13:10 | 44.40146 | -80.92138 | 37011 ft | 535 kts | 58° |
| 2026-05-01 13:10 | 44.43810 | -80.83037 | 37007 ft | 536 kts | 58° |
| 2026-05-01 13:11 | 44.47460 | -80.73942 | 37002 ft | 536 kts | 59° |
| 2026-05-01 13:11 | 44.51080 | -80.64892 | 37002 ft | 536 kts | 59° |
| 2026-05-01 13:12 | 44.54719 | -80.55768 | 37001 ft | 536 kts | 59° |
| 2026-05-01 13:12 | 44.58360 | -80.46606 | 37133 ft | 538 kts | 59° |
| 2026-05-01 13:12 | 44.60176 | -80.42026 | 37368 ft | 536 kts | 59° |
| 2026-05-01 13:13 | 44.61983 | -80.37460 | 37632 ft | 534 kts | 59° |
| 2026-05-01 13:13 | 44.63788 | -80.32893 | 37806 ft | 534 kts | 59° |
| 2026-05-01 13:13 | 44.65591 | -80.28322 | 37931 ft | 534 kts | 59° |
| 2026-05-01 13:13 | 44.67391 | -80.23753 | 38064 ft | 535 kts | 59° |
| 2026-05-01 13:14 | 44.69192 | -80.19173 | 38203 ft | 535 kts | 59° |
| 2026-05-01 13:14 | 44.70970 | -80.14645 | 38335 ft | 535 kts | 59° |
| 2026-05-01 13:14 | 44.72766 | -80.10065 | 38459 ft | 535 kts | 59° |
| 2026-05-01 13:14 | 44.74565 | -80.05467 | 38600 ft | 535 kts | 59° |
| 2026-05-01 13:15 | 44.76357 | -80.00882 | 38737 ft | 535 kts | 59° |
| 2026-05-01 13:15 | 44.78153 | -79.96274 | 38901 ft | 532 kts | 59° |
| 2026-05-01 13:15 | 44.79916 | -79.91747 | 38987 ft | 533 kts | 59° |
| 2026-05-01 13:16 | 44.83480 | -79.82571 | 38998 ft | 533 kts | 59° |
| 2026-05-01 13:16 | 44.87036 | -79.73386 | 38999 ft | 533 kts | 60° |
| 2026-05-01 13:17 | 44.94097 | -79.55060 | 38981 ft | 532 kts | 60° |
| 2026-05-01 13:18 | 44.99380 | -79.41266 | 38971 ft | 531 kts | 60° |
| 2026-05-01 13:18 | 45.02890 | -79.32066 | 38998 ft | 531 kts | 60° |
| 2026-05-01 13:19 | 45.06376 | -79.22898 | 38997 ft | 532 kts | 60° |
| 2026-05-01 13:20 | 45.11023 | -79.10626 | 38995 ft | 530 kts | 60° |
| 2026-05-01 13:20 | 45.15063 | -78.99915 | 38996 ft | 529 kts | 61° |
| 2026-05-01 13:21 | 45.19675 | -78.87632 | 38993 ft | 529 kts | 61° |
| 2026-05-01 13:21 | 45.23122 | -78.78419 | 38997 ft | 529 kts | 61° |
| 2026-05-01 13:22 | 45.26569 | -78.69174 | 38993 ft | 527 kts | 61° |
| 2026-05-01 13:22 | 45.29991 | -78.59963 | 38993 ft | 527 kts | 62° |
| 2026-05-01 13:23 | 45.33386 | -78.50796 | 38996 ft | 527 kts | 62° |
| 2026-05-01 13:23 | 45.36794 | -78.41562 | 38998 ft | 527 kts | 62° |
| 2026-05-01 13:24 | 45.40190 | -78.32330 | 38999 ft | 526 kts | 62° |
| 2026-05-01 13:25 | 45.45267 | -78.18467 | 39002 ft | 525 kts | 62° |
| 2026-05-01 13:25 | 45.48618 | -78.09281 | 38999 ft | 525 kts | 62° |
| 2026-05-01 13:26 | 45.51981 | -78.00028 | 39003 ft | 525 kts | 62° |
| 2026-05-01 13:26 | 45.55324 | -77.90798 | 39002 ft | 524 kts | 63° |
| 2026-05-01 13:27 | 45.58672 | -77.81524 | 39002 ft | 524 kts | 63° |
| 2026-05-01 13:27 | 45.63651 | -77.67675 | 38997 ft | 523 kts | 63° |
| 2026-05-01 13:28 | 45.68618 | -77.53739 | 39003 ft | 523 kts | 63° |
| 2026-05-01 13:29 | 45.75077 | -77.35140 | 38999 ft | 523 kts | 64° |
| 2026-05-01 13:31 | 45.84773 | -77.07069 | 39004 ft | 524 kts | 64° |
| 2026-05-01 13:32 | 45.92778 | -76.83676 | 38990 ft | 522 kts | 64° |
| 2026-05-01 13:33 | 46.00738 | -76.60209 | 38991 ft | 523 kts | 65° |
| 2026-05-01 13:34 | 46.07064 | -76.41406 | 38982 ft | 522 kts | 65° |
| 2026-05-01 13:35 | 46.11785 | -76.27287 | 38984 ft | 524 kts | 65° |
| 2026-05-01 13:36 | 46.16518 | -76.13056 | 38977 ft | 523 kts | 65° |
| 2026-05-01 13:36 | 46.21203 | -75.98892 | 38976 ft | 522 kts | 65° |
| 2026-05-01 13:37 | 46.24062 | -75.90209 | 38976 ft | 522 kts | 65° |
| 2026-05-01 13:37 | 46.27182 | -75.80700 | 38976 ft | 523 kts | 66° |
| 2026-05-01 13:38 | 46.31780 | -75.66626 | 38975 ft | 521 kts | 66° |
| 2026-05-01 13:39 | 46.34872 | -75.57117 | 38973 ft | 520 kts | 66° |
| 2026-05-01 13:39 | 46.37929 | -75.47680 | 38968 ft | 520 kts | 66° |
| 2026-05-01 13:40 | 46.41002 | -75.38159 | 38963 ft | 520 kts | 66° |
| 2026-05-01 13:40 | 46.44047 | -75.28692 | 38970 ft | 522 kts | 66° |
| 2026-05-01 13:41 | 46.47104 | -75.19150 | 38964 ft | 521 kts | 66° |
| 2026-05-01 13:41 | 46.50154 | -75.09598 | 38961 ft | 521 kts | 67° |
| 2026-05-01 13:42 | 46.53195 | -75.00037 | 38967 ft | 521 kts | 67° |
| 2026-05-01 13:42 | 46.56209 | -74.90524 | 38961 ft | 521 kts | 67° |
| 2026-05-01 13:43 | 46.59237 | -74.80933 | 38963 ft | 521 kts | 67° |
| 2026-05-01 13:43 | 46.62238 | -74.71389 | 38963 ft | 520 kts | 67° |
| 2026-05-01 13:44 | 46.65244 | -74.61794 | 38961 ft | 520 kts | 67° |
| 2026-05-01 13:44 | 46.68242 | -74.52187 | 38958 ft | 520 kts | 68° |
| 2026-05-01 13:45 | 46.71212 | -74.42635 | 38961 ft | 520 kts | 68° |
| 2026-05-01 13:45 | 46.74197 | -74.33000 | 38950 ft | 520 kts | 68° |
| 2026-05-01 13:46 | 46.77152 | -74.23425 | 38954 ft | 520 kts | 68° |
| 2026-05-01 13:46 | 46.80118 | -74.13774 | 38949 ft | 520 kts | 68° |
| 2026-05-01 13:47 | 46.83076 | -74.04115 | 38950 ft | 520 kts | 68° |
| 2026-05-01 13:47 | 46.86004 | -73.94514 | 38944 ft | 520 kts | 68° |
| 2026-05-01 13:48 | 46.88936 | -73.84868 | 38935 ft | 519 kts | 69° |
| 2026-05-01 13:48 | 46.91865 | -73.75195 | 38942 ft | 518 kts | 69° |
| 2026-05-01 13:49 | 46.94756 | -73.65605 | 38938 ft | 518 kts | 69° |
| 2026-05-01 13:49 | 46.97660 | -73.55938 | 38936 ft | 518 kts | 69° |
| 2026-05-01 13:50 | 47.00553 | -73.46269 | 38935 ft | 518 kts | 69° |
| 2026-05-01 13:50 | 47.03439 | -73.36586 | 38933 ft | 518 kts | 69° |
| 2026-05-01 13:51 | 47.06311 | -73.26912 | 38934 ft | 517 kts | 69° |
| 2026-05-01 13:51 | 47.09179 | -73.17212 | 38935 ft | 517 kts | 69° |
| 2026-05-01 13:52 | 47.12033 | -73.07526 | 38936 ft | 517 kts | 69° |
| 2026-05-01 13:52 | 47.14884 | -72.97810 | 38933 ft | 517 kts | 69° |
| 2026-05-01 13:53 | 47.17705 | -72.88155 | 38927 ft | 516 kts | 70° |
| 2026-05-01 13:53 | 47.21938 | -72.73600 | 38925 ft | 516 kts | 70° |
| 2026-05-01 13:54 | 47.24748 | -72.63889 | 38919 ft | 516 kts | 70° |
| 2026-05-01 13:54 | 47.27546 | -72.54176 | 38919 ft | 516 kts | 70° |
| 2026-05-01 13:55 | 47.30331 | -72.44479 | 38904 ft | 516 kts | 70° |
| 2026-05-01 13:55 | 47.33111 | -72.34757 | 38905 ft | 515 kts | 70° |
| 2026-05-01 13:56 | 47.35886 | -72.25014 | 38885 ft | 515 kts | 70° |
| 2026-05-01 13:56 | 47.38653 | -72.15258 | 38889 ft | 515 kts | 70° |
| 2026-05-01 13:57 | 47.40943 | -72.07151 | 38867 ft | 515 kts | 70° |
| 2026-05-01 13:57 | 47.44158 | -71.95727 | 38868 ft | 515 kts | 71° |
| 2026-05-01 13:58 | 47.46887 | -71.85985 | 38847 ft | 515 kts | 71° |
| 2026-05-01 13:58 | 47.49621 | -71.76190 | 38827 ft | 515 kts | 71° |
| 2026-05-01 13:59 | 47.52329 | -71.66446 | 38830 ft | 514 kts | 71° |
| 2026-05-01 13:59 | 47.55042 | -71.56645 | 38829 ft | 514 kts | 71° |
| 2026-05-01 14:00 | 47.57748 | -71.46828 | 38828 ft | 514 kts | 71° |
| 2026-05-01 14:00 | 47.60446 | -71.36999 | 38808 ft | 514 kts | 71° |
| 2026-05-01 14:01 | 47.63112 | -71.27246 | 38805 ft | 514 kts | 71° |
| 2026-05-01 14:01 | 47.65785 | -71.17426 | 38790 ft | 513 kts | 71° |
| 2026-05-01 14:02 | 47.68449 | -71.07602 | 38807 ft | 512 kts | 71° |
| 2026-05-01 14:02 | 47.71101 | -70.97780 | 38810 ft | 512 kts | 72° |
| 2026-05-01 14:03 | 47.73737 | -70.87975 | 38826 ft | 511 kts | 72° |
| 2026-05-01 14:03 | 47.76365 | -70.78163 | 38834 ft | 510 kts | 72° |
| 2026-05-01 14:04 | 47.78964 | -70.68412 | 38809 ft | 510 kts | 72° |
| 2026-05-01 14:04 | 47.81135 | -70.60238 | 38844 ft | 510 kts | 72° |
| 2026-05-01 14:05 | 47.84174 | -70.48746 | 38840 ft | 510 kts | 72° |
| 2026-05-01 14:05 | 47.86745 | -70.38981 | 38849 ft | 509 kts | 72° |
| 2026-05-01 14:06 | 47.89320 | -70.29161 | 38841 ft | 508 kts | 72° |
| 2026-05-01 14:06 | 47.91888 | -70.19322 | 38843 ft | 508 kts | 72° |
| 2026-05-01 14:07 | 47.94442 | -70.09494 | 38830 ft | 508 kts | 72° |
| 2026-05-01 14:08 | 47.98264 | -69.94713 | 38829 ft | 508 kts | 72° |
| 2026-05-01 14:08 | 48.00780 | -69.84932 | 38822 ft | 507 kts | 73° |
| 2026-05-01 14:09 | 48.03299 | -69.75091 | 38820 ft | 507 kts | 73° |
| 2026-05-01 14:09 | 48.05809 | -69.65246 | 38820 ft | 507 kts | 73° |
| 2026-05-01 14:10 | 48.08312 | -69.55384 | 38803 ft | 507 kts | 73° |
| 2026-05-01 14:10 | 48.10384 | -69.47194 | 38818 ft | 507 kts | 73° |
| 2026-05-01 14:11 | 48.12871 | -69.37319 | 38807 ft | 506 kts | 73° |
| 2026-05-01 14:11 | 48.17103 | -69.22794 | 38804 ft | 509 kts | 68° |
| 2026-05-01 14:12 | 48.20246 | -69.13287 | 38803 ft | 509 kts | 67° |
| 2026-05-01 14:12 | 48.23411 | -69.03783 | 38818 ft | 509 kts | 67° |
| 2026-05-01 14:13 | 48.26565 | -68.94260 | 38794 ft | 509 kts | 67° |
| 2026-05-01 14:13 | 48.29684 | -68.84785 | 38802 ft | 509 kts | 67° |
| 2026-05-01 14:14 | 48.32814 | -68.75229 | 38801 ft | 509 kts | 67° |
| 2026-05-01 14:14 | 48.35935 | -68.65665 | 38799 ft | 509 kts | 68° |
| 2026-05-01 14:15 | 48.39043 | -68.56109 | 38799 ft | 509 kts | 68° |
| 2026-05-01 14:15 | 48.42134 | -68.46568 | 38804 ft | 509 kts | 68° |
| 2026-05-01 14:16 | 48.45226 | -68.36989 | 38789 ft | 509 kts | 68° |
| 2026-05-01 14:16 | 48.48314 | -68.27384 | 38803 ft | 509 kts | 68° |
| 2026-05-01 14:17 | 48.51389 | -68.17783 | 38809 ft | 509 kts | 68° |
| 2026-05-01 14:17 | 48.54464 | -68.08144 | 38801 ft | 509 kts | 68° |
| 2026-05-01 14:18 | 48.57505 | -67.98577 | 38800 ft | 508 kts | 68° |
| 2026-05-01 14:18 | 48.60046 | -67.90558 | 38812 ft | 508 kts | 68° |
| 2026-05-01 14:19 | 48.63604 | -67.79278 | 38811 ft | 508 kts | 68° |
| 2026-05-01 14:19 | 48.66638 | -67.69621 | 38810 ft | 508 kts | 68° |
| 2026-05-01 14:20 | 48.71183 | -67.55085 | 38807 ft | 509 kts | 69° |
| 2026-05-01 14:21 | 48.74204 | -67.45376 | 38811 ft | 509 kts | 69° |
| 2026-05-01 14:21 | 48.77201 | -67.35708 | 38810 ft | 509 kts | 69° |
| 2026-05-01 14:22 | 48.81702 | -67.21117 | 38807 ft | 509 kts | 69° |
| 2026-05-01 14:22 | 48.84693 | -67.11370 | 38805 ft | 509 kts | 69° |
| 2026-05-01 14:23 | 48.87676 | -67.01612 | 38807 ft | 509 kts | 69° |
| 2026-05-01 14:23 | 48.90650 | -66.91846 | 38807 ft | 509 kts | 69° |
| 2026-05-01 14:24 | 48.93595 | -66.82139 | 38810 ft | 509 kts | 69° |
| 2026-05-01 14:24 | 48.96550 | -66.72358 | 38804 ft | 508 kts | 69° |
| 2026-05-01 14:25 | 48.99491 | -66.62581 | 38805 ft | 508 kts | 69° |
| 2026-05-01 14:25 | 49.02434 | -66.52760 | 38807 ft | 508 kts | 69° |
| 2026-05-01 14:26 | 49.06823 | -66.38042 | 38812 ft | 509 kts | 69° |
| 2026-05-01 14:27 | 49.09737 | -66.28224 | 38802 ft | 508 kts | 69° |
| 2026-05-01 14:27 | 49.12621 | -66.18468 | 38823 ft | 506 kts | 69° |
| 2026-05-01 14:28 | 49.16948 | -66.03754 | 38823 ft | 506 kts | 69° |
| 2026-05-01 14:28 | 49.19821 | -65.93932 | 38828 ft | 506 kts | 70° |
| 2026-05-01 14:29 | 49.22685 | -65.84103 | 38835 ft | 506 kts | 70° |
| 2026-05-01 14:30 | 49.28367 | -65.64487 | 38862 ft | 502 kts | 70° |
| 2026-05-01 14:31 | 49.32589 | -65.49797 | 38865 ft | 502 kts | 70° |
| 2026-05-01 14:31 | 49.35379 | -65.40042 | 38896 ft | 502 kts | 70° |
| 2026-05-01 14:32 | 49.38174 | -65.30235 | 38890 ft | 500 kts | 71° |
| 2026-05-01 14:32 | 49.40938 | -65.20501 | 38902 ft | 496 kts | 71° |
| 2026-05-01 14:33 | 49.43678 | -65.10801 | 38914 ft | 495 kts | 71° |
| 2026-05-01 14:33 | 49.46419 | -65.01054 | 38932 ft | 496 kts | 71° |
| 2026-05-01 14:34 | 49.49134 | -64.91367 | 38934 ft | 495 kts | 71° |
| 2026-05-01 14:34 | 49.51857 | -64.81615 | 38957 ft | 497 kts | 71° |
| 2026-05-01 14:35 | 49.54580 | -64.71817 | 38952 ft | 498 kts | 71° |
| 2026-05-01 14:35 | 49.57300 | -64.61992 | 38965 ft | 498 kts | 71° |
| 2026-05-01 14:36 | 49.60010 | -64.52162 | 38972 ft | 498 kts | 72° |
| 2026-05-01 14:36 | 49.62696 | -64.42378 | 38974 ft | 498 kts | 72° |
| 2026-05-01 14:37 | 49.65393 | -64.32508 | 38974 ft | 500 kts | 71° |
| 2026-05-01 14:37 | 49.68091 | -64.22595 | 38986 ft | 501 kts | 72° |
| 2026-05-01 14:38 | 49.70783 | -64.12668 | 38969 ft | 501 kts | 72° |
| 2026-05-01 14:38 | 49.73466 | -64.02729 | 38976 ft | 501 kts | 72° |
| 2026-05-01 14:39 | 49.76120 | -63.92855 | 38971 ft | 500 kts | 72° |
| 2026-05-01 14:39 | 49.78786 | -63.82889 | 38985 ft | 500 kts | 72° |
| 2026-05-01 14:40 | 49.81438 | -63.72939 | 38989 ft | 500 kts | 72° |
| 2026-05-01 14:40 | 49.84081 | -63.62974 | 39001 ft | 500 kts | 72° |
| 2026-05-01 14:41 | 49.86701 | -63.53057 | 39001 ft | 500 kts | 72° |
| 2026-05-01 14:41 | 49.89330 | -63.43062 | 39025 ft | 500 kts | 72° |
| 2026-05-01 14:42 | 49.91953 | -63.33044 | 39034 ft | 502 kts | 72° |
| 2026-05-01 14:42 | 49.94576 | -63.22983 | 39042 ft | 503 kts | 72° |
| 2026-05-01 14:43 | 49.97190 | -63.12914 | 39056 ft | 503 kts | 72° |
| 2026-05-01 14:43 | 49.99798 | -63.02823 | 39053 ft | 503 kts | 72° |
| 2026-05-01 14:44 | 50.02397 | -62.92721 | 39069 ft | 503 kts | 72° |
| 2026-05-01 14:44 | 50.06258 | -62.77631 | 39075 ft | 503 kts | 72° |
| 2026-05-01 14:45 | 50.10123 | -62.62425 | 39099 ft | 503 kts | 72° |
| 2026-05-01 14:46 | 50.12687 | -62.52278 | 39117 ft | 503 kts | 72° |
| 2026-05-01 14:46 | 50.16494 | -62.37128 | 39096 ft | 502 kts | 72° |
| 2026-05-01 14:47 | 50.19035 | -62.26960 | 39132 ft | 503 kts | 72° |
| 2026-05-01 14:48 | 50.22832 | -62.11678 | 39127 ft | 503 kts | 72° |
| 2026-05-01 14:48 | 50.26606 | -61.96384 | 39123 ft | 503 kts | 72° |
| 2026-05-01 14:49 | 50.31583 | -61.76046 | 39150 ft | 502 kts | 72° |
| 2026-05-01 14:50 | 50.36540 | -61.55604 | 39146 ft | 503 kts | 72° |
| 2026-05-01 14:51 | 50.40244 | -61.40207 | 39145 ft | 503 kts | 72° |
| 2026-05-01 14:52 | 50.43919 | -61.24821 | 39154 ft | 502 kts | 72° |
| 2026-05-01 14:53 | 50.47567 | -61.09438 | 39157 ft | 502 kts | 72° |
| 2026-05-01 14:53 | 50.49978 | -60.99210 | 39157 ft | 502 kts | 72° |
| 2026-05-01 14:54 | 50.52391 | -60.88926 | 39156 ft | 502 kts | 72° |
| 2026-05-01 14:54 | 50.54797 | -60.78622 | 39163 ft | 502 kts | 72° |
| 2026-05-01 14:55 | 50.57193 | -60.68311 | 39174 ft | 502 kts | 72° |
| 2026-05-01 14:55 | 50.59581 | -60.57987 | 39171 ft | 502 kts | 72° |
| 2026-05-01 14:56 | 50.61941 | -60.47732 | 39181 ft | 502 kts | 72° |
| 2026-05-01 14:56 | 50.64315 | -60.37369 | 39185 ft | 502 kts | 72° |
| 2026-05-01 14:57 | 50.66673 | -60.27023 | 39189 ft | 501 kts | 72° |
| 2026-05-01 14:57 | 50.70195 | -60.11477 | 39188 ft | 501 kts | 73° |
| 2026-05-01 14:58 | 50.72516 | -60.01167 | 39203 ft | 501 kts | 73° |
| 2026-05-01 14:58 | 50.74842 | -59.90786 | 39208 ft | 501 kts | 73° |
| 2026-05-01 14:59 | 50.77163 | -59.80381 | 39209 ft | 500 kts | 73° |
| 2026-05-01 14:59 | 50.79077 | -59.71752 | 39215 ft | 500 kts | 73° |
| 2026-05-01 15:00 | 50.82889 | -59.54466 | 39222 ft | 500 kts | 73° |
| 2026-05-01 15:01 | 50.84784 | -59.45815 | 39223 ft | 500 kts | 73° |
| 2026-05-01 15:01 | 50.87058 | -59.35395 | 39223 ft | 500 kts | 73° |
| 2026-05-01 15:02 | 50.89317 | -59.24989 | 39228 ft | 500 kts | 73° |
| 2026-05-01 15:02 | 50.91566 | -59.14576 | 39227 ft | 500 kts | 73° |
| 2026-05-01 15:03 | 50.93813 | -59.04115 | 39230 ft | 500 kts | 73° |
| 2026-05-01 15:03 | 50.96032 | -58.93735 | 39229 ft | 500 kts | 73° |
| 2026-05-01 15:04 | 50.98255 | -58.83281 | 39228 ft | 500 kts | 73° |
| 2026-05-01 15:04 | 51.00465 | -58.72835 | 39227 ft | 499 kts | 73° |
| 2026-05-01 15:05 | 51.02664 | -58.62386 | 39233 ft | 498 kts | 73° |
| 2026-05-01 15:05 | 51.04852 | -58.51939 | 39232 ft | 498 kts | 73° |
| 2026-05-01 15:06 | 51.07030 | -58.41483 | 39230 ft | 498 kts | 74° |
| 2026-05-01 15:06 | 51.09186 | -58.31078 | 39235 ft | 498 kts | 74° |
| 2026-05-01 15:07 | 51.11346 | -58.20597 | 39229 ft | 498 kts | 74° |
| 2026-05-01 15:07 | 51.13498 | -58.10103 | 39230 ft | 498 kts | 74° |
| 2026-05-01 15:08 | 51.15638 | -57.99611 | 39223 ft | 498 kts | 74° |
| 2026-05-01 15:08 | 51.17772 | -57.89093 | 39235 ft | 498 kts | 74° |
| 2026-05-01 15:09 | 51.19879 | -57.78648 | 39235 ft | 498 kts | 74° |
| 2026-05-01 15:09 | 51.21990 | -57.68134 | 39249 ft | 497 kts | 75° |
| 2026-05-01 15:10 | 51.24088 | -57.57628 | 39247 ft | 497 kts | 75° |
| 2026-05-01 15:10 | 51.27216 | -57.41850 | 39257 ft | 496 kts | 75° |
| 2026-05-01 15:11 | 51.30320 | -57.26065 | 39268 ft | 497 kts | 75° |
| 2026-05-01 15:12 | 51.32379 | -57.15527 | 39272 ft | 496 kts | 75° |
| 2026-05-01 15:12 | 51.35432 | -56.99791 | 39276 ft | 496 kts | 75° |
| 2026-05-01 15:14 | 51.40492 | -56.73418 | 39281 ft | 496 kts | 75° |
| 2026-05-01 15:14 | 51.43504 | -56.57545 | 39290 ft | 496 kts | 75° |
| 2026-05-01 15:15 | 51.47480 | -56.36383 | 39301 ft | 495 kts | 75° |
| 2026-05-01 15:16 | 51.51399 | -56.15286 | 39312 ft | 494 kts | 76° |
| 2026-05-01 15:18 | 51.56256 | -55.88797 | 39314 ft | 494 kts | 76° |
| 2026-05-01 15:19 | 51.60084 | -55.67652 | 39331 ft | 494 kts | 76° |
| 2026-05-01 15:19 | 51.62937 | -55.51728 | 39333 ft | 493 kts | 76° |
| 2026-05-01 15:20 | 51.65760 | -55.35829 | 39340 ft | 492 kts | 76° |
| 2026-05-01 15:21 | 51.67632 | -55.25212 | 39349 ft | 492 kts | 77° |
| 2026-05-01 15:21 | 51.69492 | -55.14594 | 39341 ft | 492 kts | 77° |
| 2026-05-01 15:22 | 51.72253 | -54.98721 | 39343 ft | 492 kts | 77° |
| 2026-05-01 15:22 | 51.74090 | -54.88079 | 39349 ft | 491 kts | 76° |
| 2026-05-01 15:23 | 51.75913 | -54.77457 | 39354 ft | 490 kts | 76° |
| 2026-05-01 15:23 | 51.77722 | -54.66851 | 39356 ft | 490 kts | 77° |
| 2026-05-01 15:24 | 51.79544 | -54.56237 | 39365 ft | 491 kts | 74° |
| 2026-05-01 15:24 | 51.82136 | -54.46014 | 39364 ft | 492 kts | 67° |
| 2026-05-01 15:25 | 51.85015 | -54.35959 | 39367 ft | 493 kts | 66° |
| 2026-05-01 15:25 | 51.87939 | -54.25920 | 39372 ft | 493 kts | 66° |
| 2026-05-01 15:26 | 51.90843 | -54.15879 | 39375 ft | 493 kts | 66° |
| 2026-05-01 15:26 | 51.93731 | -54.05809 | 39379 ft | 493 kts | 67° |
| 2026-05-01 15:27 | 51.96604 | -53.95731 | 39371 ft | 492 kts | 67° |
| 2026-05-01 15:28 | 52.00869 | -53.80685 | 39382 ft | 490 kts | 67° |
| 2026-05-01 15:28 | 52.03711 | -53.70610 | 39389 ft | 490 kts | 67° |
| 2026-05-01 15:29 | 52.07952 | -53.55492 | 39389 ft | 490 kts | 67° |
| 2026-05-01 15:30 | 52.13560 | -53.35357 | 39400 ft | 489 kts | 67° |
| 2026-05-01 15:31 | 52.21922 | -53.04998 | 39399 ft | 489 kts | 68° |
| 2026-05-01 15:32 | 52.27446 | -52.84722 | 39408 ft | 488 kts | 68° |
| 2026-05-01 15:34 | 52.35636 | -52.54329 | 39418 ft | 487 kts | 68° |